WetterOnline ( https://www.wetteronline.de )

Wetter aktuell Waibstadt

Aktuelles Wetter: Waibstadt (237m)

6-stündlich | Neueste Meldungen
Ortszeit Temperatur Wetter
Di, 18.06. 20:00 24.8° C bedeckt
Di, 18.06. 14:00 27.1° C wolkig
Di, 18.06. 8:00 15.9° C bewölkt
Di, 18.06. 2:00 13.7° C leicht bewölkt
Mo, 17.06. 20:00 20.5° C bewölkt
Mo, 17.06. 14:00 20.6° C bewölkt
Mo, 17.06. 8:00 15.9° C leichter Regen
Mo, 17.06. 2:00 14.8° C leichter Regen
Ortszeit Temperatur Wetter
Di, 18.06. 20:00 24.8° C bedeckt
Di, 18.06. 19:50 24.8° C bedeckt
Di, 18.06. 19:40 24.8° C bedeckt
Di, 18.06. 19:30 25.2° C bedeckt
Di, 18.06. 19:20 25.2° C bedeckt
Di, 18.06. 19:10 25.5° C bedeckt
Di, 18.06. 19:00 25.7° C bedeckt
Di, 18.06. 18:30 26.4° C wolkig
Di, 18.06. 18:00 27.3° C bewölkt
Di, 18.06. 17:30 28.1° C bewölkt
Di, 18.06. 17:00 28.9° C leicht bewölkt
Ortszeit Relative Feuchte Sichtweite
Di, 18.06. 20:00 64% 60 km
Di, 18.06. 14:00 55% 45 km
Di, 18.06. 8:00 90% 50 km
Di, 18.06. 2:00 96% 18 km
Mo, 17.06. 20:00 73% >70 km
Mo, 17.06. 14:00 72% 55 km
Mo, 17.06. 8:00 94% 11 km
Mo, 17.06. 2:00 94% 50 km
Ortszeit Relative Feuchte Sichtweite
Di, 18.06. 20:00 64% 60 km
Di, 18.06. 19:50 64% -
Di, 18.06. 19:40 64% -
Di, 18.06. 19:30 60% 50 km
Di, 18.06. 19:20 60% -
Di, 18.06. 19:10 58% -
Di, 18.06. 19:00 59% 45 km
Di, 18.06. 18:30 57% 60 km
Di, 18.06. 18:00 54% 55 km
Di, 18.06. 17:30 52% 60 km
Di, 18.06. 17:00 48% 45 km
Ortszeit Niederschlagsmenge Niederschlagsart
Di, 18.06. 20:00 0.0 l/m2 in 12 Std. -
Di, 18.06. 14:00 0.0 l/m2 in 6 Std. -
Di, 18.06. 8:00 0.0 l/m2 in 12 Std. -
Di, 18.06. 2:00 0.0 l/m2 in 6 Std. -
Mo, 17.06. 20:00 0.5 l/m2 in 12 Std. Regen
Mo, 17.06. 14:00 0.3 l/m2 in 6 Std. Regen
Mo, 17.06. 8:00 4 l/m2 in 12 Std. Regen
Mo, 17.06. 2:00 0.4 l/m2 in 6 Std. Regen
Ortszeit Niederschlagsmenge Niederschlagsart
Di, 18.06. 20:00 0.0 l/m2 in 1 Std. -
Di, 18.06. 19:50 keine Meldung -
Di, 18.06. 19:40 keine Meldung -
Di, 18.06. 19:30 0.0 l/m2 in 30 Min -
Di, 18.06. 19:20 keine Meldung -
Di, 18.06. 19:10 keine Meldung -
Di, 18.06. 19:00 0.0 l/m2 in 1 Std. -
Di, 18.06. 18:30 0.0 l/m2 in 30 Min -
Di, 18.06. 18:00 0.0 l/m2 in 1 Std. -
Di, 18.06. 17:30 0.0 l/m2 in 30 Min -
Di, 18.06. 17:00 0.0 l/m2 in 1 Std. -
Ortszeit Stärke Spitze Richtung
km/h Bft. km/h Grad Sektor
Di, 18.06. 20:00 7 2 25 280° W
Di, 18.06. 14:00 9 2 20 150° SO
Di, 18.06. 8:00 11 2 18 80° O
Di, 18.06. 2:00 4 1 14 110° O
Mo, 17.06. 20:00 6 1 26 230° SW
Mo, 17.06. 14:00 11 2 40 270° W
Mo, 17.06. 8:00 14 3 22 240° SW
Mo, 17.06. 2:00 2 1 26 30° NO
Ortszeit Stärke Spitze Richtung
km/h Bft. km/h Grad Sektor
Di, 18.06. 20:00 7 2 18 280° W
Di, 18.06. 19:50 7 2 - 280° W
Di, 18.06. 19:40 9 2 - 280° W
Di, 18.06. 19:30 7 2 18 280° W
Di, 18.06. 19:20 7 2 - 280° W
Di, 18.06. 19:10 11 2 - 280° W
Di, 18.06. 19:00 13 3 22 290° W
Di, 18.06. 18:30 15 3 22 290° W
Di, 18.06. 18:00 11 2 25 260° W
Di, 18.06. 17:30 13 3 24 250° W
Di, 18.06. 17:00 11 2 18 250° W
Ortszeit Untergrenze Bedeckung Gattung
total tief tief mittel hoch
Di, 18.06. 20:00 3300 m 8/8 8/8 - - -
Di, 18.06. 14:00 8400 m 7/8 0/8 - - -
Di, 18.06. 8:00 4800 m 8/8 5/8 - - -
Di, 18.06. 2:00 9000 m 3/8 0/8 - - -
Mo, 17.06. 20:00 2400 m 8/8 7/8 - - -
Mo, 17.06. 14:00 1110 m 8/8 6/8 - - -
Mo, 17.06. 8:00 300 m 7/8 7/8 - - -
Mo, 17.06. 2:00 1260 m 8/8 8/8 - - -
Ortszeit Bedeckungsgrad in Achtel und Wolkenuntergrenze
Di, 18.06. 20:00 6(3300m) 8(5100m)
Di, 18.06. 19:50 6(3300m) 8(5100m)
Di, 18.06. 19:40 8
Di, 18.06. 19:30 5(3300m) 7(4800m) 8(5700m)
Di, 18.06. 19:20 5(3300m) 7(4800m) 8(5700m)
Di, 18.06. 19:10 8
Di, 18.06. 19:00 7(6000m) 8(6600m)
Di, 18.06. 18:30 5(6900m) 7(8700m)
Di, 18.06. 18:00 6(3600m) 7(8400m) 8(9000m)
Di, 18.06. 17:30 5(3600m) 7(6000m)
Di, 18.06. 17:00 4(9000m)
Ortszeit Luftdruck NN (hPa) Tendenz (hPa in 3 Std.)
Di, 18.06. 20:00 1011 + 0,2
Di, 18.06. 14:00 1012 - 1,3
Di, 18.06. 8:00 1015 - 1,0
Di, 18.06. 2:00 1016 + 0,3
Mo, 17.06. 20:00 1014 + 0,3
Mo, 17.06. 14:00 1014 + 0,8
Mo, 17.06. 8:00 1013 + 0,7
Mo, 17.06. 2:00 1013 + 0,5
Ortszeit Luftdruck NN (hPa) Tendenz (hPa in 3 Std.)
Di, 18.06. 20:00 1011 + 0,2
Di, 18.06. 19:50 1011 keine Meldung
Di, 18.06. 19:40 1010 keine Meldung
Di, 18.06. 19:30 1010 - 0,1
Di, 18.06. 19:20 1010 keine Meldung
Di, 18.06. 19:10 1010 keine Meldung
Di, 18.06. 19:00 1010 - 0,4
Di, 18.06. 18:30 1010 - 1,0
Di, 18.06. 18:00 1010 - 1,4
Di, 18.06. 17:30 1010 - 1,6
Di, 18.06. 17:00 1010 - 1,8
Ortszeit Schneehöhe (cm)
Di, 18.06. 20:00 0
Di, 18.06. 14:00 0
Di, 18.06. 8:00 0
Di, 18.06. 2:00 0
Mo, 17.06. 20:00 0
Mo, 17.06. 14:00 0
Mo, 17.06. 8:00 0
Mo, 17.06. 2:00 0
Ortszeit Schneehöhe (cm)
Di, 18.06. 20:00 0
Di, 18.06. 19:50 0
Di, 18.06. 19:40 -
Di, 18.06. 19:30 0
Di, 18.06. 19:20 0
Di, 18.06. 19:10 -
Di, 18.06. 19:00 0
Di, 18.06. 18:30 0
Di, 18.06. 18:00 0
Di, 18.06. 17:30 0
Di, 18.06. 17:00 0
Link zu dieser Seite / Seite empfehlen

Das Wetter in ...